»·PEaware :: N32196 KOVE-KRDD

N32196 :: KOVE-KRDD

FLIGHT INFORMATION

Flight Status: Arrived
Operator: Privately registered:
United States
More flights under this callsign
Pilot: Gary H. (18965)
Aircraft: PIPER PA-28R-201 ARROW
(P28R)
More flights by this aircraft type
Origin: KOVE Oroville Mun
United States
Destination: KRDD Redding Mun
United States
More flights between these airports :: More routes between these airports
Route: +DURHA V332 RBL
File this flight plan on PilotEdge
Remarks:
Altitude:
(Current/Filed)
6,000ft
Speed:
(Current/Filed)
120kts
Departed: 04-Sep-20 05:23 PM
Arrived: 04-Sep-20 06:17 PM
Distance/Time
Traveled:
69nm/0:54
Distance/Time
To Go:
Arrived

Flight Plot

Page will automatically refresh every two minutes.

Flight plan parsing failed; only flown route is shown


Map Options




Map Legend


Flown Route
Filed Route
Departure Airport
Arrival Airport
Navaid (VOR, NDB)
Fix

Horizontal Profiles

Position Reports

Time Latitude Longitude Heading Altitude Ground
Speed
04-Sep-20 17:01 39.490619 -121.618865 213 179ft 0kts
04-Sep-20 17:02 39.490619 -121.618865 213 179ft 0kts
04-Sep-20 17:03 39.490619 -121.618865 213 179ft 0kts
04-Sep-20 17:04 39.490619 -121.618865 213 179ft 0kts
04-Sep-20 17:05 39.490619 -121.618865 213 179ft 0kts
04-Sep-20 17:06 39.490619 -121.618865 213 179ft 0kts
04-Sep-20 17:06 39.490619 -121.618865 213 179ft 0kts
04-Sep-20 17:08 39.490619 -121.618865 213 179ft 0kts
04-Sep-20 17:09 39.490619 -121.618865 213 179ft 0kts
04-Sep-20 17:10 39.490619 -121.618865 213 179ft 0kts
04-Sep-20 17:10 39.490619 -121.618865 213 179ft 0kts
04-Sep-20 17:11 39.490619 -121.618865 213 179ft 0kts
04-Sep-20 17:13 39.490619 -121.618865 213 179ft 0kts
04-Sep-20 17:13 39.490619 -121.618865 213 179ft 0kts
04-Sep-20 17:14 39.490619 -121.618865 213 179ft 0kts
04-Sep-20 17:15 39.490619 -121.618865 213 179ft 0kts
04-Sep-20 17:16 39.490335 -121.619689 229 178ft 9kts
04-Sep-20 17:17 39.491821 -121.619211 33 182ft 15kts
04-Sep-20 17:18 39.492160 -121.619186 330 183ft 0kts
04-Sep-20 17:19 39.492160 -121.619186 330 183ft 0kts
04-Sep-20 17:20 39.492160 -121.619186 330 183ft 0kts
04-Sep-20 17:21 39.492160 -121.619186 330 183ft 0kts
04-Sep-20 17:22 39.489514 -121.622865 211 206ft 73kts
04-Sep-20 17:23 39.477447 -121.648548 300 1008ft 117kts
04-Sep-20 17:24 39.507281 -121.666908 338 1649ft 119kts
04-Sep-20 17:25 39.538041 -121.679542 333 2384ft 113kts
04-Sep-20 17:26 39.567286 -121.695340 331 3091ft 114kts
04-Sep-20 17:27 39.596469 -121.710963 332 3815ft 114kts
04-Sep-20 17:28 39.626296 -121.726775 332 4563ft 117kts
04-Sep-20 17:29 39.654255 -121.748270 322 5329ft 118kts
04-Sep-20 17:30 39.680575 -121.773747 312 6023ft 120kts
04-Sep-20 17:31 39.708469 -121.805372 312 6075ft 137kts
04-Sep-20 17:32 39.737469 -121.838589 313 6076ft 139kts
04-Sep-20 17:33 39.766758 -121.871952 314 6031ft 140kts
04-Sep-20 17:34 39.796260 -121.905236 314 6024ft 140kts
04-Sep-20 17:35 39.825762 -121.938505 315 6019ft 140kts
04-Sep-20 17:36 39.855811 -121.971247 315 6044ft 140kts
04-Sep-20 17:37 39.885866 -122.003903 315 6023ft 141kts
04-Sep-20 17:38 39.916034 -122.036614 315 6052ft 141kts
04-Sep-20 17:39 39.946006 -122.070053 314 6065ft 141kts
04-Sep-20 17:40 39.975928 -122.103425 315 6036ft 142kts
04-Sep-20 17:41 40.006097 -122.137065 315 6006ft 143kts
04-Sep-20 17:42 40.036424 -122.170853 315 5980ft 143kts
04-Sep-20 17:43 40.066715 -122.204531 315 5958ft 143kts
04-Sep-20 17:44 40.103468 -122.205850 16 6039ft 139kts
04-Sep-20 17:45 40.139870 -122.193966 14 6662ft 131kts
04-Sep-20 17:46 40.175512 -122.182966 14 7330ft 131kts
04-Sep-20 17:47 40.211308 -122.171711 14 7953ft 133kts
04-Sep-20 17:48 40.244606 -122.161133 15 8089ft 144kts
04-Sep-20 17:49 40.279359 -122.150062 15 8073ft 148kts
04-Sep-20 17:50 40.313905 -122.138988 15 8041ft 149kts
04-Sep-20 17:51 40.357307 -122.124763 15 8013ft 147kts
04-Sep-20 17:52 40.397109 -122.112513 13 8005ft 147kts
04-Sep-20 17:53 40.436763 -122.099843 13 7994ft 147kts
04-Sep-20 17:54 40.476537 -122.086996 11 7995ft 147kts
04-Sep-20 17:55 40.516291 -122.074854 11 8007ft 147kts
04-Sep-20 17:56 40.556012 -122.062628 11 8030ft 147kts
04-Sep-20 17:57 40.595876 -122.050271 11 8052ft 147kts
04-Sep-20 17:58 40.635586 -122.037873 11 8070ft 147kts
04-Sep-20 17:59 40.675449 -122.025415 10 8066ft 147kts
04-Sep-20 18:00 40.708738 -122.039170 287 7626ft 137kts
04-Sep-20 18:01 40.731210 -122.080279 300 7066ft 138kts
04-Sep-20 18:02 40.754200 -122.120595 291 6544ft 135kts
04-Sep-20 18:03 40.770219 -122.164824 285 6062ft 132kts
04-Sep-20 18:04 40.781680 -122.208632 276 5952ft 118kts
04-Sep-20 18:05 40.789137 -122.251879 277 5930ft 123kts
04-Sep-20 18:06 40.782212 -122.288148 178 5752ft 115kts
04-Sep-20 18:07 40.749322 -122.289752 190 5254ft 119kts
04-Sep-20 18:08 40.716533 -122.290484 177 4788ft 119kts
04-Sep-20 18:09 40.683428 -122.289979 183 4285ft 120kts
04-Sep-20 18:10 40.649645 -122.292816 189 3604ft 118kts
04-Sep-20 18:11 40.624652 -122.294205 179 2914ft 85kts
04-Sep-20 18:12 40.600968 -122.295159 183 2319ft 85kts
04-Sep-20 18:13 40.577393 -122.294511 181 1798ft 85kts
04-Sep-20 18:14 40.557739 -122.294692 182 1460ft 78kts
04-Sep-20 18:15 40.535337 -122.294756 180 975ft 85kts
04-Sep-20 18:16 40.515188 -122.294899 176 499ft 30kts
04-Sep-20 18:17 40.514233 -122.295835 271 499ft 0kts
04-Sep-20 18:18 40.511860 -122.297078 234 496ft 18kts

Navigation Log

Ident Type
Flight plan parsing failed, navigation log unavailable